createdAt,value
2023-03-31T00:09:11.718Z,3.10
2023-03-31T00:24:15.214Z,3.47
2023-03-31T00:39:19.475Z,2.40
2023-03-31T00:54:23.662Z,3.00
2023-03-31T01:09:28.213Z,2.53
2023-03-31T01:25:01.840Z,2.60
2023-03-31T01:40:31.394Z,2.70
2023-03-31T01:55:50.524Z,3.20
2023-03-31T02:10:54.348Z,3.00
2023-03-31T02:26:05.066Z,3.40
2023-03-31T02:41:08.796Z,3.47
2023-03-31T02:56:32.511Z,3.73
2023-03-31T03:11:40.581Z,3.47
2023-03-31T03:26:43.018Z,2.97
2023-03-31T03:41:45.085Z,3.47
2023-03-31T03:56:47.132Z,2.77
2023-03-31T04:11:48.992Z,3.90
2023-03-31T04:26:51.169Z,4.47
2023-03-31T04:41:54.651Z,4.30
2023-03-31T04:56:56.568Z,3.83
2023-03-31T05:11:58.516Z,4.60
2023-03-31T05:27:02.728Z,4.27
2023-03-31T05:42:06.761Z,3.73
2023-03-31T05:57:09.708Z,3.33
2023-03-31T06:12:11.656Z,3.17
2023-03-31T06:27:13.518Z,3.03
2023-03-31T06:42:32.531Z,3.93
2023-03-31T06:57:35.038Z,2.30
2023-03-31T07:12:36.987Z,2.07
2023-03-31T07:27:48.999Z,2.30
2023-03-31T07:42:57.425Z,2.73
2023-03-31T07:57:59.555Z,3.93
2023-03-31T08:13:01.666Z,3.50
2023-03-31T08:28:03.782Z,2.60
2023-03-31T08:43:11.630Z,3.00
2023-03-31T08:58:29.726Z,3.57
2023-03-31T09:14:03.398Z,3.00
2023-03-31T09:29:13.702Z,3.27
2023-03-31T09:44:46.179Z,3.37
2023-03-31T09:59:51.981Z,4.00
2023-03-31T10:15:02.408Z,3.50
2023-03-31T10:30:09.896Z,3.70
2023-03-31T10:45:35.816Z,3.40
2023-03-31T11:00:59.320Z,2.70
2023-03-31T11:16:21.583Z,2.50
2023-03-31T11:31:51.039Z,2.23
2023-03-31T11:47:02.625Z,2.07
2023-03-31T12:02:07.570Z,1.90
2023-03-31T12:17:23.003Z,1.60
2023-03-31T12:32:30.334Z,2.87
2023-03-31T12:47:56.564Z,3.30
2023-03-31T13:18:23.195Z,2.73
2023-03-31T13:33:33.064Z,3.10
2023-03-31T13:48:57.072Z,2.90
2023-03-31T14:04:36.465Z,3.57
2023-03-31T14:19:50.325Z,2.83
2023-03-31T14:35:14.089Z,2.43
2023-03-31T14:50:21.045Z,2.10
2023-03-31T15:05:33.266Z,1.50
2023-03-31T15:20:41.800Z,2.13
2023-03-31T15:35:44.333Z,2.40
2023-03-31T15:50:47.122Z,2.13
2023-03-31T16:05:54.472Z,1.90
2023-03-31T16:21:09.446Z,1.90
2023-03-31T16:36:13.189Z,1.80
2023-03-31T16:51:22.437Z,3.17
2023-03-31T17:06:24.567Z,2.30
2023-03-31T17:21:29.794Z,1.27
2023-03-31T17:36:31.836Z,1.97
2023-03-31T17:51:35.545Z,2.37
2023-03-31T18:06:37.654Z,1.80
2023-03-31T18:21:46.664Z,1.50
2023-03-31T18:36:48.677Z,2.30
2023-03-31T18:51:50.767Z,2.40
2023-03-31T19:06:53.546Z,1.90
2023-03-31T19:21:57.511Z,2.57
2023-03-31T19:36:59.518Z,2.00
2023-03-31T19:52:01.893Z,1.93
2023-03-31T20:07:05.633Z,2.00
2023-03-31T20:22:08.620Z,3.17
2023-03-31T20:37:10.550Z,2.20
2023-03-31T20:52:13.015Z,2.20
2023-03-31T21:07:15.371Z,2.10
2023-03-31T21:22:17.962Z,2.00
2023-03-31T21:37:19.844Z,2.47
2023-03-31T21:52:23.205Z,1.90
2023-03-31T22:07:25.203Z,1.60
2023-03-31T22:22:27.206Z,1.60
2023-03-31T22:37:40.871Z,1.63
2023-03-31T22:52:43.208Z,1.90
2023-03-31T23:07:45.416Z,1.93
2023-03-31T23:22:50.420Z,1.23
2023-03-31T23:37:52.384Z,1.80
2023-03-31T23:52:56.334Z,2.70
